createdAt,value
2022-09-11T00:01:28.439Z,45.49
2022-09-11T00:03:56.568Z,46.05
2022-09-11T00:06:29.747Z,45.18
2022-09-11T00:09:00.929Z,46.05
2022-09-11T00:11:33.069Z,46.12
2022-09-11T00:14:00.952Z,46.24
2022-09-11T00:16:36.637Z,47.56
2022-09-11T00:19:11.565Z,46.35
2022-09-11T00:21:39.609Z,46.43
2022-09-11T00:24:10.382Z,46.50
2022-09-11T00:26:38.835Z,47.20
2022-09-11T00:29:05.984Z,47.89
2022-09-11T00:31:32.838Z,47.18
2022-09-11T00:33:59.984Z,47.73
2022-09-11T00:36:31.700Z,47.25
2022-09-11T00:38:59.548Z,47.46
2022-09-11T00:41:36.221Z,49.53
2022-09-11T00:44:07.350Z,49.72
2022-09-11T00:46:38.905Z,48.24
2022-09-11T00:49:18.298Z,49.33
2022-09-11T00:51:49.061Z,48.59
2022-09-11T00:54:21.123Z,48.93
2022-09-11T00:56:49.366Z,48.30
2022-09-11T00:59:17.996Z,48.08
2022-09-11T01:01:44.914Z,47.88
2022-09-11T01:04:12.025Z,47.09
2022-09-11T01:06:40.824Z,47.80
2022-09-11T01:09:08.764Z,48.40
2022-09-11T01:12:24.823Z,48.52
2022-09-11T01:15:00.686Z,48.07
2022-09-11T01:17:35.091Z,49.93
2022-09-11T01:20:32.889Z,49.33
2022-09-11T01:23:17.954Z,48.60
2022-09-11T01:26:20.893Z,48.79
2022-09-11T01:28:57.770Z,50.26
2022-09-11T01:31:30.475Z,50.54
2022-09-11T01:34:02.524Z,49.17
2022-09-11T01:36:35.503Z,48.86
2022-09-11T01:39:04.312Z,49.48
2022-09-11T01:41:53.406Z,50.00
2022-09-11T01:44:27.627Z,49.83
2022-09-11T01:46:54.924Z,49.16
2022-09-11T01:49:49.184Z,48.37
2022-09-11T01:52:20.956Z,48.62
2022-09-11T01:54:54.364Z,47.65
2022-09-11T01:57:40.054Z,47.68
2022-09-11T02:00:11.033Z,47.51
2022-09-11T02:03:07.435Z,47.63
2022-09-11T02:06:06.294Z,47.36
2022-09-11T02:08:49.123Z,47.00
2022-09-11T02:11:20.714Z,47.62
2022-09-11T02:14:06.989Z,47.78
2022-09-11T02:16:38.568Z,47.09
2022-09-11T02:19:09.269Z,47.40
2022-09-11T02:21:37.357Z,47.26
2022-09-11T02:24:06.945Z,46.85
2022-09-11T02:26:39.831Z,46.64
2022-09-11T02:29:09.002Z,47.17
2022-09-11T02:31:36.428Z,47.34
2022-09-11T02:34:03.743Z,47.30
2022-09-11T02:36:40.585Z,47.39
2022-09-11T02:39:23.048Z,47.34
2022-09-11T02:42:15.926Z,47.63
2022-09-11T02:45:23.236Z,47.95
2022-09-11T02:48:36.260Z,48.30
2022-09-11T02:51:23.605Z,48.02
2022-09-11T02:53:56.472Z,48.15
2022-09-11T02:56:40.243Z,48.22
2022-09-11T02:59:15.317Z,48.35
2022-09-11T03:01:53.399Z,48.56
2022-09-11T03:04:24.703Z,48.60
2022-09-11T03:06:53.908Z,48.33
2022-09-11T03:09:21.284Z,49.00
2022-09-11T03:11:51.972Z,48.79
2022-09-11T03:14:19.857Z,49.19
2022-09-11T03:16:46.795Z,50.26
2022-09-11T03:19:14.320Z,50.06
2022-09-11T03:21:41.871Z,50.31
2022-09-11T03:24:09.632Z,49.92
2022-09-11T03:26:37.629Z,51.58
2022-09-11T03:29:05.639Z,51.98
2022-09-11T03:31:36.210Z,52.13
2022-09-11T03:34:06.468Z,51.49
2022-09-11T03:36:36.565Z,51.10
2022-09-11T03:39:05.202Z,50.94
2022-09-11T03:41:32.588Z,50.37
2022-09-11T03:43:59.830Z,50.48
2022-09-11T03:46:27.501Z,50.12
2022-09-11T03:48:54.492Z,51.65
2022-09-11T03:51:21.818Z,51.10
2022-09-11T03:53:48.604Z,51.78
2022-09-11T03:56:16.122Z,51.66
2022-09-11T03:58:48.350Z,50.33
2022-09-11T04:01:19.160Z,49.81
2022-09-11T04:03:46.750Z,51.05
2022-09-11T04:06:23.458Z,51.25
2022-09-11T04:08:50.408Z,50.71
2022-09-11T04:11:19.061Z,50.58
2022-09-11T04:13:46.051Z,51.05
2022-09-11T04:16:17.396Z,52.00
2022-09-11T04:18:47.604Z,50.55
2022-09-11T04:21:17.406Z,53.20
2022-09-11T04:23:56.030Z,52.65
2022-09-11T04:26:25.963Z,51.96
2022-09-11T04:28:58.976Z,53.03
2022-09-11T04:31:27.726Z,51.76
2022-09-11T04:33:57.884Z,51.99
2022-09-11T04:36:30.130Z,52.76
2022-09-11T04:38:58.864Z,52.65
2022-09-11T04:41:26.500Z,53.87
2022-09-11T04:43:59.034Z,54.22
2022-09-11T04:46:28.250Z,53.66
2022-09-11T04:48:59.236Z,52.23
2022-09-11T04:51:29.242Z,52.28
2022-09-11T04:53:58.727Z,52.13
2022-09-11T04:56:34.282Z,52.06
2022-09-11T04:59:05.727Z,52.36
2022-09-11T05:01:35.782Z,51.27
2022-09-11T05:04:03.305Z,50.89
2022-09-11T05:06:30.965Z,50.89
2022-09-11T05:09:09.827Z,50.80
2022-09-11T05:11:38.373Z,51.11
2022-09-11T05:14:06.199Z,50.36
2022-09-11T05:16:37.128Z,52.07
2022-09-11T05:19:04.976Z,51.47
2022-09-11T05:21:34.595Z,51.16
2022-09-11T05:24:02.604Z,50.07
2022-09-11T05:26:34.534Z,51.08
2022-09-11T05:29:05.963Z,50.97
2022-09-11T05:31:35.479Z,50.75
2022-09-11T05:34:04.388Z,51.09
2022-09-11T05:36:31.942Z,51.65
2022-09-11T05:38:59.393Z,51.17
2022-09-11T05:41:26.683Z,51.46
2022-09-11T05:43:54.786Z,51.23
2022-09-11T05:46:22.299Z,51.02
2022-09-11T05:48:53.751Z,50.70
2022-09-11T05:51:22.028Z,50.53
2022-09-11T05:53:55.428Z,50.77
2022-09-11T05:56:25.127Z,51.50
2022-09-11T05:58:57.916Z,51.15
2022-09-11T06:01:31.231Z,50.57
2022-09-11T06:04:15.696Z,51.18
2022-09-11T06:06:47.954Z,51.50
2022-09-11T06:09:16.208Z,51.13
2022-09-11T06:11:43.304Z,51.00
2022-09-11T06:14:13.154Z,50.50
2022-09-11T06:16:42.297Z,50.06
2022-09-11T06:19:12.661Z,49.81
2022-09-11T06:21:40.896Z,49.27
2022-09-11T06:24:43.553Z,49.53
2022-09-11T06:27:10.863Z,50.26
2022-09-11T06:29:44.124Z,48.85
2022-09-11T06:32:11.796Z,49.23
2022-09-11T06:34:39.575Z,49.58
2022-09-11T06:37:09.871Z,50.41
2022-09-11T06:39:36.857Z,50.54
2022-09-11T06:42:03.976Z,50.72
2022-09-11T06:44:35.468Z,50.69
2022-09-11T06:47:03.998Z,50.55
2022-09-11T06:49:32.265Z,49.84
2022-09-11T06:52:17.797Z,48.88
2022-09-11T06:54:54.357Z,49.36
2022-09-11T06:57:21.522Z,48.31
2022-09-11T06:59:48.308Z,48.68
2022-09-11T07:02:16.461Z,48.02
2022-09-11T07:04:44.856Z,47.91
2022-09-11T07:07:11.745Z,47.49
2022-09-11T07:09:40.523Z,46.74
2022-09-11T07:12:07.730Z,45.57
2022-09-11T07:14:34.780Z,46.00
2022-09-11T07:17:11.637Z,46.05
2022-09-11T07:19:40.370Z,46.67
2022-09-11T07:22:07.232Z,45.64
2022-09-11T07:24:34.988Z,45.00
2022-09-11T07:27:01.717Z,45.00
2022-09-11T07:29:32.723Z,43.45
2022-09-11T07:32:00.003Z,44.28
2022-09-11T07:34:27.695Z,44.25
2022-09-11T07:36:55.484Z,44.50
2022-09-11T07:39:25.394Z,44.12
2022-09-11T07:42:00.621Z,41.29
2022-09-11T07:44:31.615Z,41.17
2022-09-11T07:46:58.470Z,41.36
2022-09-11T07:49:26.846Z,40.76
2022-09-11T07:51:54.707Z,42.78
2022-09-11T07:54:31.628Z,42.58
2022-09-11T07:56:58.778Z,41.86
2022-09-11T07:59:25.561Z,41.25
2022-09-11T08:01:55.630Z,41.47
2022-09-11T08:04:23.496Z,39.44
2022-09-11T08:06:51.440Z,38.88
2022-09-11T08:09:27.620Z,38.74
2022-09-11T08:11:58.618Z,39.02
2022-09-11T08:14:27.434Z,40.76
2022-09-11T08:16:58.036Z,42.56
2022-09-11T08:19:27.695Z,42.78
2022-09-11T08:21:58.440Z,41.09
2022-09-11T08:24:27.341Z,39.68
2022-09-11T08:26:58.228Z,40.96
2022-09-11T08:29:26.346Z,41.17
2022-09-11T08:31:53.934Z,41.15
2022-09-11T08:34:22.322Z,40.45
2022-09-11T08:36:50.704Z,39.76
2022-09-11T08:39:18.225Z,38.90
2022-09-11T08:42:13.368Z,39.36
2022-09-11T08:44:52.760Z,39.33
2022-09-11T08:47:37.223Z,38.78
2022-09-11T08:50:17.561Z,41.01
2022-09-11T08:52:45.437Z,39.84
2022-09-11T08:55:18.034Z,40.44
2022-09-11T08:57:48.662Z,38.88
2022-09-11T09:00:27.640Z,38.81
2022-09-11T09:03:30.572Z,37.93
2022-09-11T09:06:22.274Z,38.46
2022-09-11T09:08:57.451Z,37.92
2022-09-11T09:11:41.141Z,38.14
2022-09-11T09:14:34.218Z,37.05
2022-09-11T09:17:07.623Z,36.67
2022-09-11T09:19:47.952Z,38.11
2022-09-11T09:22:42.457Z,36.91
2022-09-11T09:25:14.339Z,36.18
2022-09-11T09:27:47.087Z,35.71
2022-09-11T09:30:19.921Z,36.06
2022-09-11T09:33:00.604Z,35.27
2022-09-11T09:35:43.682Z,35.61
2022-09-11T09:38:25.115Z,34.37
2022-09-11T09:41:27.821Z,35.16
2022-09-11T09:44:10.797Z,32.62
2022-09-11T09:46:50.980Z,32.60
2022-09-11T09:49:33.167Z,31.97
2022-09-11T09:52:05.696Z,31.75
2022-09-11T09:54:36.529Z,31.37
2022-09-11T09:57:10.454Z,31.69
2022-09-11T09:59:46.772Z,32.37
2022-09-11T10:02:30.349Z,31.62
2022-09-11T10:05:14.036Z,30.29
2022-09-11T10:07:52.611Z,29.79
2022-09-11T10:10:38.940Z,30.10
2022-09-11T10:13:28.547Z,30.45
2022-09-11T10:16:19.342Z,29.82
2022-09-11T10:18:47.250Z,30.12
2022-09-11T10:21:13.987Z,30.45
2022-09-11T10:24:00.275Z,30.58
2022-09-11T10:26:38.173Z,29.94
2022-09-11T10:29:19.420Z,28.92
2022-09-11T10:31:51.865Z,28.84
2022-09-11T10:34:21.103Z,28.62
2022-09-11T10:37:01.109Z,28.88
2022-09-11T10:39:31.502Z,29.71
2022-09-11T10:42:10.047Z,29.13
2022-09-11T10:44:41.779Z,29.76
2022-09-11T10:47:20.622Z,30.26
2022-09-11T10:49:48.228Z,29.21
2022-09-11T10:52:18.792Z,30.16
2022-09-11T10:54:54.110Z,29.88
2022-09-11T10:57:48.534Z,29.24
2022-09-11T11:00:25.598Z,28.80
2022-09-11T11:03:10.977Z,29.59
2022-09-11T11:06:06.367Z,29.03
2022-09-11T11:09:00.307Z,28.95
2022-09-11T11:11:56.119Z,28.71
2022-09-11T11:14:34.651Z,29.41
2022-09-11T11:17:20.204Z,29.71
2022-09-11T11:20:18.017Z,28.96
2022-09-11T11:22:58.428Z,28.10
2022-09-11T11:25:41.238Z,29.07
2022-09-11T11:28:12.017Z,28.43
2022-09-11T11:31:08.574Z,28.41
2022-09-11T11:34:13.007Z,29.44
2022-09-11T11:37:16.341Z,29.59
2022-09-11T11:40:07.131Z,29.53
2022-09-11T11:42:46.856Z,29.83
2022-09-11T11:45:34.586Z,29.06
2022-09-11T11:48:09.172Z,28.13
2022-09-11T11:50:46.366Z,27.63
2022-09-11T11:53:32.251Z,28.57
2022-09-11T11:56:13.421Z,28.28
2022-09-11T11:59:00.026Z,28.13
2022-09-11T12:01:42.910Z,28.21
2022-09-11T12:04:27.664Z,27.39
2022-09-11T12:06:54.798Z,27.53
2022-09-11T12:09:21.797Z,27.75
2022-09-11T12:11:53.023Z,26.04
2022-09-11T12:14:29.149Z,26.44
2022-09-11T12:16:56.983Z,26.58
2022-09-11T12:19:25.705Z,26.49
2022-09-11T12:21:52.396Z,26.42
2022-09-11T12:24:43.449Z,26.17
2022-09-11T12:27:35.214Z,27.16
2022-09-11T12:30:23.433Z,27.51
2022-09-11T12:32:58.166Z,26.86
2022-09-11T12:35:27.761Z,27.20
2022-09-11T12:38:03.696Z,27.12
2022-09-11T12:40:37.642Z,27.72
2022-09-11T12:43:44.351Z,27.50
2022-09-11T12:46:37.160Z,26.97
2022-09-11T12:49:25.780Z,27.42
2022-09-11T12:52:00.427Z,26.32
2022-09-11T12:54:40.124Z,26.96
2022-09-11T12:57:14.920Z,26.72
2022-09-11T12:59:45.822Z,26.27
2022-09-11T13:02:37.342Z,24.83
2022-09-11T13:05:16.148Z,25.04
2022-09-11T13:07:47.008Z,25.19
2022-09-11T13:10:36.687Z,24.64
2022-09-11T13:13:40.709Z,24.88
2022-09-11T13:16:24.211Z,25.32
2022-09-11T13:18:53.749Z,24.86
2022-09-11T13:21:25.749Z,25.31
2022-09-11T13:23:53.960Z,24.99
2022-09-11T13:26:31.267Z,24.58
2022-09-11T13:29:00.442Z,24.70
2022-09-11T13:31:37.958Z,25.00
2022-09-11T13:34:16.268Z,25.23
2022-09-11T13:36:43.153Z,25.10
2022-09-11T13:39:10.696Z,24.81
2022-09-11T13:41:41.119Z,24.59
2022-09-11T13:44:13.139Z,25.46
2022-09-11T13:46:51.822Z,24.10
2022-09-11T13:49:26.463Z,24.53
2022-09-11T13:51:53.485Z,24.40
2022-09-11T13:54:34.164Z,24.62
2022-09-11T13:57:01.558Z,24.54
2022-09-11T13:59:48.108Z,23.99
2022-09-11T14:02:34.702Z,23.55
2022-09-11T14:05:23.526Z,23.81
2022-09-11T14:08:01.245Z,23.51
2022-09-11T14:10:42.056Z,23.02
2022-09-11T14:13:30.235Z,22.91
2022-09-11T14:16:09.668Z,22.82
2022-09-11T14:18:49.740Z,22.27
2022-09-11T14:21:23.028Z,23.47
2022-09-11T14:23:55.673Z,22.25
2022-09-11T14:26:39.104Z,22.68
2022-09-11T14:29:23.697Z,23.42
2022-09-11T14:31:51.979Z,22.38
2022-09-11T14:34:26.396Z,22.25
2022-09-11T14:36:58.150Z,21.62
2022-09-11T14:39:31.920Z,22.71
2022-09-11T14:41:59.733Z,23.27
2022-09-11T14:44:39.534Z,22.91
2022-09-11T14:47:07.119Z,22.93
2022-09-11T14:49:34.004Z,22.33
2022-09-11T14:52:01.205Z,23.62
2022-09-11T14:54:32.151Z,23.33
2022-09-11T14:57:00.161Z,23.20
2022-09-11T14:59:29.201Z,23.17
2022-09-11T15:01:58.741Z,23.84
2022-09-11T15:04:25.763Z,24.45
2022-09-11T15:06:55.528Z,23.74
2022-09-11T15:09:24.205Z,23.56
2022-09-11T15:11:52.423Z,23.43
2022-09-11T15:14:38.561Z,23.38
2022-09-11T15:17:10.687Z,23.68
2022-09-11T15:19:38.279Z,24.31
2022-09-11T15:22:06.815Z,23.95
2022-09-11T15:24:34.585Z,24.06
2022-09-11T15:27:01.421Z,23.72
2022-09-11T15:29:31.540Z,23.69
2022-09-11T15:32:01.099Z,23.64
2022-09-11T15:34:31.780Z,23.70
2022-09-11T15:36:58.634Z,24.48
2022-09-11T15:39:26.057Z,24.96
2022-09-11T15:41:55.502Z,26.05
2022-09-11T15:44:24.754Z,27.44
2022-09-11T15:46:53.803Z,28.92
2022-09-11T15:49:22.469Z,29.08
2022-09-11T15:51:50.836Z,29.96
2022-09-11T15:54:18.507Z,30.88
2022-09-11T15:56:47.011Z,30.42
2022-09-11T15:59:15.351Z,30.98
2022-09-11T16:01:44.491Z,30.66
2022-09-11T16:04:17.668Z,31.64
2022-09-11T16:06:46.332Z,31.78
2022-09-11T16:09:16.412Z,31.96
2022-09-11T16:11:45.825Z,31.85
2022-09-11T16:14:22.146Z,31.48
2022-09-11T16:16:49.645Z,32.60
2022-09-11T16:19:18.601Z,35.29
2022-09-11T16:21:45.745Z,35.90
2022-09-11T16:24:14.772Z,36.02
2022-09-11T16:26:44.057Z,35.92
2022-09-11T16:29:12.687Z,36.72
2022-09-11T16:31:40.976Z,36.28
2022-09-11T16:34:08.198Z,37.33
2022-09-11T16:36:42.637Z,36.81
2022-09-11T16:39:15.706Z,38.02
2022-09-11T16:41:43.592Z,39.08
2022-09-11T16:44:13.207Z,39.29
2022-09-11T16:46:40.895Z,39.75
2022-09-11T16:49:08.294Z,39.04
2022-09-11T16:51:35.432Z,38.67
2022-09-11T16:54:04.116Z,37.89
2022-09-11T16:56:31.251Z,40.12
2022-09-11T16:58:58.735Z,39.88
2022-09-11T17:01:27.820Z,40.41
2022-09-11T17:03:56.441Z,40.50
2022-09-11T17:06:29.895Z,42.40
2022-09-11T17:08:59.808Z,42.90
2022-09-11T17:11:28.089Z,42.93
2022-09-11T17:13:55.393Z,42.46
2022-09-11T17:16:26.068Z,42.62
2022-09-11T17:18:54.778Z,42.63
2022-09-11T17:21:24.184Z,42.87
2022-09-11T17:23:53.264Z,43.27
2022-09-11T17:26:20.252Z,44.87
2022-09-11T17:28:49.082Z,44.07
2022-09-11T17:31:19.199Z,44.30
2022-09-11T17:33:47.384Z,43.37
2022-09-11T17:36:17.226Z,44.37
2022-09-11T17:38:45.429Z,46.16
2022-09-11T17:41:12.340Z,44.72
2022-09-11T17:43:39.844Z,46.26
2022-09-11T17:46:15.172Z,46.58
2022-09-11T17:48:42.973Z,47.28
2022-09-11T17:51:13.416Z,46.38
2022-09-11T17:53:44.544Z,47.55
2022-09-11T17:56:14.949Z,46.90
2022-09-11T17:58:44.826Z,47.43
2022-09-11T18:01:16.774Z,47.72
2022-09-11T18:03:44.756Z,47.58
2022-09-11T18:06:28.434Z,48.55
2022-09-11T18:09:00.327Z,47.92
2022-09-11T18:11:28.421Z,47.74
2022-09-11T18:13:55.247Z,48.27
2022-09-11T18:16:22.612Z,46.88
2022-09-11T18:18:49.853Z,47.19
2022-09-11T18:21:17.261Z,46.69
2022-09-11T18:23:46.289Z,46.35
2022-09-11T18:26:30.534Z,45.83
2022-09-11T18:29:00.188Z,46.33
2022-09-11T18:31:31.338Z,46.57
2022-09-11T18:34:01.000Z,48.42
2022-09-11T18:36:29.838Z,49.21
2022-09-11T18:39:00.074Z,50.59
2022-09-11T18:41:28.868Z,51.43
2022-09-11T18:43:57.578Z,51.23
2022-09-11T18:46:25.680Z,49.70
2022-09-11T18:48:52.797Z,49.41
2022-09-11T18:51:20.163Z,50.43
2022-09-11T18:53:53.652Z,52.38
2022-09-11T18:56:22.687Z,50.00
2022-09-11T18:58:50.590Z,50.69
2022-09-11T19:01:20.735Z,49.25
2022-09-11T19:03:47.552Z,49.47
2022-09-11T19:06:16.498Z,49.67
2022-09-11T19:08:45.144Z,48.79
2022-09-11T19:11:22.008Z,48.00
2022-09-11T19:13:50.261Z,50.24
2022-09-11T19:16:18.491Z,50.09
2022-09-11T19:18:45.510Z,50.02
2022-09-11T19:21:19.477Z,50.52
2022-09-11T19:23:48.279Z,50.18
2022-09-11T19:26:22.233Z,49.04
2022-09-11T19:28:50.778Z,48.78
2022-09-11T19:31:27.778Z,49.49
2022-09-11T19:33:56.447Z,49.35
2022-09-11T19:36:27.771Z,49.68
2022-09-11T19:39:04.680Z,50.13
2022-09-11T19:41:34.388Z,49.54
2022-09-11T19:44:02.415Z,48.16
2022-09-11T19:46:31.384Z,48.91
2022-09-11T19:49:00.929Z,48.68
2022-09-11T19:51:33.739Z,48.77
2022-09-11T19:54:05.105Z,47.28
2022-09-11T19:56:34.099Z,48.71
2022-09-11T19:59:01.450Z,49.01
2022-09-11T20:01:30.609Z,48.78
2022-09-11T20:04:00.560Z,47.63
2022-09-11T20:06:30.579Z,48.41
2022-09-11T20:09:13.818Z,48.76
2022-09-11T20:11:45.661Z,50.31
2022-09-11T20:14:12.512Z,49.81
2022-09-11T20:16:39.461Z,48.90
2022-09-11T20:19:06.702Z,49.81
2022-09-11T20:21:35.455Z,49.18
2022-09-11T20:24:05.292Z,49.22
2022-09-11T20:26:32.657Z,49.19
2022-09-11T20:29:08.497Z,50.79
2022-09-11T20:31:46.288Z,50.84
2022-09-11T20:34:16.207Z,50.12
2022-09-11T20:36:43.069Z,49.82
2022-09-11T20:39:13.504Z,50.60
2022-09-11T20:41:40.726Z,51.60
2022-09-11T20:44:07.789Z,51.58
2022-09-11T20:46:34.702Z,51.73
2022-09-11T20:49:02.999Z,50.66
2022-09-11T20:51:30.106Z,51.74
2022-09-11T20:53:56.923Z,51.41
2022-09-11T20:56:24.145Z,52.67
2022-09-11T20:58:52.214Z,52.40
2022-09-11T21:01:22.313Z,52.45
2022-09-11T21:03:54.110Z,51.54
2022-09-11T21:06:25.850Z,52.02
2022-09-11T21:08:56.058Z,52.75
2022-09-11T21:11:24.737Z,52.69
2022-09-11T21:13:51.764Z,53.79
2022-09-11T21:16:20.092Z,52.22
2022-09-11T21:18:51.468Z,52.04
2022-09-11T21:21:19.232Z,53.45
2022-09-11T21:23:46.200Z,53.54
2022-09-11T21:26:14.852Z,53.07
2022-09-11T21:28:41.918Z,52.22
2022-09-11T21:31:09.654Z,52.15
2022-09-11T21:33:37.569Z,52.35
2022-09-11T21:36:05.540Z,52.16
2022-09-11T21:38:32.646Z,51.51
2022-09-11T21:41:00.916Z,50.44
2022-09-11T21:43:27.962Z,50.82
2022-09-11T21:45:55.067Z,50.51
2022-09-11T21:48:22.241Z,51.65
2022-09-11T21:50:49.505Z,51.92
2022-09-11T21:53:17.982Z,52.28
2022-09-11T21:55:46.508Z,52.24
2022-09-11T21:58:16.131Z,52.73
2022-09-11T22:00:43.558Z,53.06
2022-09-11T22:03:13.455Z,53.56
2022-09-11T22:05:43.339Z,54.51
2022-09-11T22:08:11.550Z,53.88
2022-09-11T22:10:46.662Z,53.74
2022-09-11T22:13:14.126Z,53.48
2022-09-11T22:15:45.103Z,53.47
2022-09-11T22:18:12.268Z,54.91
2022-09-11T22:20:40.567Z,54.81
2022-09-11T22:23:08.402Z,55.17
2022-09-11T22:25:36.956Z,54.65
2022-09-11T22:28:04.657Z,54.11
2022-09-11T22:30:32.411Z,53.12
2022-09-11T22:33:00.034Z,53.09
2022-09-11T22:35:28.904Z,51.45
2022-09-11T22:37:55.696Z,52.92
2022-09-11T22:40:22.464Z,53.13
2022-09-11T22:42:49.967Z,52.13
2022-09-11T22:45:17.218Z,52.04
2022-09-11T22:47:44.229Z,51.44
2022-09-11T22:50:10.999Z,51.42
2022-09-11T22:52:37.876Z,52.26
2022-09-11T22:55:06.155Z,51.04
2022-09-11T22:57:36.242Z,49.98
2022-09-11T23:00:07.927Z,50.23
2022-09-11T23:02:36.085Z,50.22
2022-09-11T23:05:39.873Z,49.82
2022-09-11T23:08:06.822Z,50.84
2022-09-11T23:10:33.551Z,50.25
2022-09-11T23:13:00.542Z,50.33
2022-09-11T23:15:27.845Z,51.04
2022-09-11T23:17:55.056Z,51.94
2022-09-11T23:20:22.277Z,52.52
2022-09-11T23:22:50.148Z,52.28
2022-09-11T23:25:17.108Z,52.48
2022-09-11T23:27:44.832Z,52.76
2022-09-11T23:30:11.771Z,52.89
2022-09-11T23:32:41.759Z,52.49
2022-09-11T23:35:09.768Z,52.11
2022-09-11T23:37:36.703Z,51.59
2022-09-11T23:40:05.457Z,50.68
2022-09-11T23:42:32.716Z,51.13
2022-09-11T23:44:59.589Z,50.31
2022-09-11T23:47:26.290Z,51.77
2022-09-11T23:49:53.454Z,53.18
2022-09-11T23:52:20.190Z,52.25
2022-09-11T23:54:47.197Z,50.82
2022-09-11T23:57:14.012Z,51.25
2022-09-11T23:59:40.691Z,51.76
